sensor_id;sensor_type;location;lat;lon;timestamp;pressure;altitude;pressure_sealevel;temperature;humidity
4199;BME280;2113;50.946;14.610;2023-07-16T00:02:02;51513.09;;;-141.55;52.86
4199;BME280;2113;50.946;14.610;2023-07-16T00:04:31;51531.03;;;-141.55;53.50
4199;BME280;2113;50.946;14.610;2023-07-16T00:07:00;51523.06;;;-141.55;54.15
4199;BME280;2113;50.946;14.610;2023-07-16T00:09:29;51550.97;;;-141.55;54.32
4199;BME280;2113;50.946;14.610;2023-07-16T00:11:57;51519.06;;;-141.55;54.56
4199;BME280;2113;50.946;14.610;2023-07-16T00:14:27;51523.06;;;-141.55;54.53
4199;BME280;2113;50.946;14.610;2023-07-16T00:16:56;51517.09;;;-141.55;55.08
4199;BME280;2113;50.946;14.610;2023-07-16T00:19:24;51513.09;;;-141.55;54.84
4199;BME280;2113;50.946;14.610;2023-07-16T00:21:55;51547.00;;;-141.55;55.26
4199;BME280;2113;50.946;14.610;2023-07-16T00:24:23;51543.00;;;-141.55;55.58
4199;BME280;2113;50.946;14.610;2023-07-16T00:26:52;51566.94;;;-141.55;55.44
4199;BME280;2113;50.946;14.610;2023-07-16T00:29:21;51533.03;;;-141.55;56.39
4199;BME280;2113;50.946;14.610;2023-07-16T00:31:51;51549.00;;;-141.55;56.45
4199;BME280;2113;50.946;14.610;2023-07-16T00:34:19;51566.94;;;-141.55;57.37
4199;BME280;2113;50.946;14.610;2023-07-16T00:36:47;51580.88;;;-141.55;57.16
4199;BME280;2113;50.946;14.610;2023-07-16T00:39:16;51582.88;;;-141.55;57.37
4199;BME280;2113;50.946;14.610;2023-07-16T00:41:44;51552.97;;;-141.55;57.45
4199;BME280;2113;50.946;14.610;2023-07-16T00:44:13;51554.97;;;-141.55;57.69
4199;BME280;2113;50.946;14.610;2023-07-16T00:46:41;51550.97;;;-141.55;57.29
4199;BME280;2113;50.946;14.610;2023-07-16T00:49:13;51535.03;;;-141.55;57.04
4199;BME280;2113;50.946;14.610;2023-07-16T00:51:42;51537.03;;;-141.55;56.52
4199;BME280;2113;50.946;14.610;2023-07-16T00:54:11;51533.03;;;-141.55;56.36
4199;BME280;2113;50.946;14.610;2023-07-16T00:56:40;51521.06;;;-141.55;55.96
4199;BME280;2113;50.946;14.610;2023-07-16T00:59:09;51552.97;;;-141.55;56.29
4199;BME280;2113;50.946;14.610;2023-07-16T01:01:38;51600.84;;;-141.55;56.58
4199;BME280;2113;50.946;14.610;2023-07-16T01:04:09;51545.00;;;-141.55;57.13
4199;BME280;2113;50.946;14.610;2023-07-16T01:06:41;51574.91;;;-141.55;57.48
4199;BME280;2113;50.946;14.610;2023-07-16T01:09:15;51543.00;;;-141.55;57.80
4199;BME280;2113;50.946;14.610;2023-07-16T01:11:44;51552.97;;;-141.55;57.85
4199;BME280;2113;50.946;14.610;2023-07-16T01:14:14;51554.97;;;-141.55;58.16
4199;BME280;2113;50.946;14.610;2023-07-16T01:16:44;51527.06;;;-141.55;55.81
4199;BME280;2113;50.946;14.610;2023-07-16T01:19:13;51521.06;;;-141.55;53.94
4199;BME280;2113;50.946;14.610;2023-07-16T01:21:46;51521.06;;;-141.55;53.44
4199;BME280;2113;50.946;14.610;2023-07-16T01:24:40;51511.09;;;-141.55;52.84
4199;BME280;2113;50.946;14.610;2023-07-16T01:27:30;51503.13;;;-141.55;53.03
4199;BME280;2113;50.946;14.610;2023-07-16T01:30:08;51515.09;;;-141.55;52.90
4199;BME280;2113;50.946;14.610;2023-07-16T01:32:37;51495.16;;;-141.55;52.55
4199;BME280;2113;50.946;14.610;2023-07-16T01:35:08;51499.13;;;-141.55;52.76
4199;BME280;2113;50.946;14.610;2023-07-16T01:37:37;51513.09;;;-141.55;53.15
4199;BME280;2113;50.946;14.610;2023-07-16T01:40:07;51511.09;;;-141.55;53.07
4199;BME280;2113;50.946;14.610;2023-07-16T01:42:37;51493.16;;;-141.55;53.13
4199;BME280;2113;50.946;14.610;2023-07-16T01:45:07;51521.06;;;-141.55;53.15
4199;BME280;2113;50.946;14.610;2023-07-16T01:47:42;51519.06;;;-141.55;53.50
4199;BME280;2113;50.946;14.610;2023-07-16T01:50:14;51525.06;;;-141.55;53.80
4199;BME280;2113;50.946;14.610;2023-07-16T01:52:42;51493.16;;;-141.55;53.57
4199;BME280;2113;50.946;14.610;2023-07-16T01:55:11;51525.06;;;-141.55;54.07
4199;BME280;2113;50.946;14.610;2023-07-16T01:57:39;51515.09;;;-141.55;54.30
4199;BME280;2113;50.946;14.610;2023-07-16T02:00:11;51564.94;;;-141.55;55.02
4199;BME280;2113;50.946;14.610;2023-07-16T02:02:45;51531.03;;;-141.55;55.34
4199;BME280;2113;50.946;14.610;2023-07-16T02:05:15;51537.03;;;-141.55;55.32
4199;BME280;2113;50.946;14.610;2023-07-16T02:07:43;51519.06;;;-141.55;55.45
4199;BME280;2113;50.946;14.610;2023-07-16T02:10:11;51511.09;;;-141.55;55.42
4199;BME280;2113;50.946;14.610;2023-07-16T02:12:40;51556.97;;;-141.55;55.43
4199;BME280;2113;50.946;14.610;2023-07-16T02:15:10;51513.09;;;-141.55;55.09
4199;BME280;2113;50.946;14.610;2023-07-16T02:17:38;51517.09;;;-141.55;55.35
4199;BME280;2113;50.946;14.610;2023-07-16T02:20:09;51513.09;;;-141.55;55.37
4199;BME280;2113;50.946;14.610;2023-07-16T02:22:38;51521.06;;;-141.55;55.49
4199;BME280;2113;50.946;14.610;2023-07-16T02:25:07;51550.97;;;-141.55;55.42
4199;BME280;2113;50.946;14.610;2023-07-16T02:27:36;51537.03;;;-141.55;55.64
4199;BME280;2113;50.946;14.610;2023-07-16T02:30:05;51568.94;;;-141.55;55.80
4199;BME280;2113;50.946;14.610;2023-07-16T02:32:35;51517.09;;;-141.55;55.87
4199;BME280;2113;50.946;14.610;2023-07-16T02:35:04;51556.97;;;-141.55;56.16
4199;BME280;2113;50.946;14.610;2023-07-16T02:37:32;51543.00;;;-141.55;56.80
4199;BME280;2113;50.946;14.610;2023-07-16T02:40:01;51541.00;;;-141.55;56.72
4199;BME280;2113;50.946;14.610;2023-07-16T02:42:29;51531.03;;;-141.55;56.69
4199;BME280;2113;50.946;14.610;2023-07-16T02:44:57;51543.00;;;-141.55;57.31
4199;BME280;2113;50.946;14.610;2023-07-16T02:47:26;51576.91;;;-141.55;57.76
4199;BME280;2113;50.946;14.610;2023-07-16T02:49:56;51574.91;;;-141.55;57.64
4199;BME280;2113;50.946;14.610;2023-07-16T02:52:24;51562.94;;;-141.55;57.85
4199;BME280;2113;50.946;14.610;2023-07-16T02:54:54;51529.03;;;-141.55;57.61
4199;BME280;2113;50.946;14.610;2023-07-16T02:57:23;51560.94;;;-141.55;57.21
4199;BME280;2113;50.946;14.610;2023-07-16T02:59:51;51545.00;;;-141.55;57.23
4199;BME280;2113;50.946;14.610;2023-07-16T03:02:20;51560.94;;;-141.55;56.76
4199;BME280;2113;50.946;14.610;2023-07-16T03:04:49;51562.94;;;-141.55;56.96
4199;BME280;2113;50.946;14.610;2023-07-16T03:07:20;51515.09;;;-141.55;57.02
4199;BME280;2113;50.946;14.610;2023-07-16T03:09:50;51588.88;;;-141.55;56.72
4199;BME280;2113;50.946;14.610;2023-07-16T03:12:18;51541.00;;;-141.55;56.10
4199;BME280;2113;50.946;14.610;2023-07-16T03:14:47;51535.03;;;-141.55;56.12
4199;BME280;2113;50.946;14.610;2023-07-16T03:17:17;51549.00;;;-141.55;56.47
4199;BME280;2113;50.946;14.610;2023-07-16T03:19:46;51545.00;;;-141.55;56.45
4199;BME280;2113;50.946;14.610;2023-07-16T03:22:14;51535.03;;;-141.55;56.97
4199;BME280;2113;50.946;14.610;2023-07-16T03:24:44;51552.97;;;-141.55;57.15
4199;BME280;2113;50.946;14.610;2023-07-16T03:27:13;51586.88;;;-141.55;56.92
4199;BME280;2113;50.946;14.610;2023-07-16T03:29:49;51535.03;;;-141.55;57.17
4199;BME280;2113;50.946;14.610;2023-07-16T03:32:18;51558.97;;;-141.55;56.93
4199;BME280;2113;50.946;14.610;2023-07-16T03:34:46;51547.00;;;-141.55;56.78
4199;BME280;2113;50.946;14.610;2023-07-16T03:37:15;51564.94;;;-141.55;56.73
4199;BME280;2113;50.946;14.610;2023-07-16T03:39:46;51554.97;;;-141.55;56.67
4199;BME280;2113;50.946;14.610;2023-07-16T03:42:14;51539.00;;;-141.55;56.89
4199;BME280;2113;50.946;14.610;2023-07-16T03:44:45;51568.94;;;-141.55;57.42
4199;BME280;2113;50.946;14.610;2023-07-16T03:47:13;51562.94;;;-141.55;57.61
4199;BME280;2113;50.946;14.610;2023-07-16T03:49:42;51570.91;;;-141.55;59.19
4199;BME280;2113;50.946;14.610;2023-07-16T03:52:11;51574.91;;;-141.55;60.16
4199;BME280;2113;50.946;14.610;2023-07-16T03:54:39;51616.78;;;-141.55;61.38
4199;BME280;2113;50.946;14.610;2023-07-16T03:57:09;51600.84;;;-141.55;61.60
4199;BME280;2113;50.946;14.610;2023-07-16T03:59:37;51578.91;;;-141.55;61.24
4199;BME280;2113;50.946;14.610;2023-07-16T04:02:06;51568.94;;;-141.55;61.28
4199;BME280;2113;50.946;14.610;2023-07-16T04:04:34;51590.84;;;-141.55;61.32
4199;BME280;2113;50.946;14.610;2023-07-16T04:07:03;51598.84;;;-141.55;61.35
4199;BME280;2113;50.946;14.610;2023-07-16T04:09:32;51598.84;;;-141.55;62.00
4199;BME280;2113;50.946;14.610;2023-07-16T04:12:00;51622.75;;;-141.55;62.36
4199;BME280;2113;50.946;14.610;2023-07-16T04:14:30;51634.72;;;-141.55;62.89
4199;BME280;2113;50.946;14.610;2023-07-16T04:16:58;51608.81;;;-141.55;62.87
4199;BME280;2113;50.946;14.610;2023-07-16T04:19:28;51602.81;;;-141.55;62.54
4199;BME280;2113;50.946;14.610;2023-07-16T04:21:57;51630.75;;;-141.55;62.81
4199;BME280;2113;50.946;14.610;2023-07-16T04:24:25;51586.88;;;-141.55;62.70
4199;BME280;2113;50.946;14.610;2023-07-16T04:26:54;51580.88;;;-141.55;62.36
4199;BME280;2113;50.946;14.610;2023-07-16T04:29:23;51606.81;;;-141.55;62.17
4199;BME280;2113;50.946;14.610;2023-07-16T04:31:53;51574.91;;;-141.55;62.00
4199;BME280;2113;50.946;14.610;2023-07-16T04:34:21;51590.84;;;-141.55;61.90
4199;BME280;2113;50.946;14.610;2023-07-16T04:36:49;51626.75;;;-141.55;61.70
4199;BME280;2113;50.946;14.610;2023-07-16T04:39:18;51590.84;;;-141.55;61.56
4199;BME280;2113;50.946;14.610;2023-07-16T04:41:47;51614.78;;;-141.55;61.38
4199;BME280;2113;50.946;14.610;2023-07-16T04:44:16;51602.81;;;-141.55;61.79
4199;BME280;2113;50.946;14.610;2023-07-16T04:46:44;51604.81;;;-141.55;61.80
4199;BME280;2113;50.946;14.610;2023-07-16T04:49:14;51586.88;;;-141.55;62.44
4199;BME280;2113;50.946;14.610;2023-07-16T04:51:42;51570.91;;;-141.55;64.53
4199;BME280;2113;50.946;14.610;2023-07-16T04:54:14;51638.72;;;-141.55;65.90
4199;BME280;2113;50.946;14.610;2023-07-16T04:56:43;51630.75;;;-141.55;66.60
4199;BME280;2113;50.946;14.610;2023-07-16T04:59:11;51616.78;;;-141.55;68.39
4199;BME280;2113;50.946;14.610;2023-07-16T05:01:40;51626.75;;;-141.55;69.09
4199;BME280;2113;50.946;14.610;2023-07-16T05:04:08;51594.84;;;-141.55;69.97
4199;BME280;2113;50.946;14.610;2023-07-16T05:06:38;51632.72;;;-141.55;69.88
4199;BME280;2113;50.946;14.610;2023-07-16T05:09:07;51626.75;;;-141.55;70.28
4199;BME280;2113;50.946;14.610;2023-07-16T05:11:36;51636.72;;;-141.55;70.04
4199;BME280;2113;50.946;14.610;2023-07-16T05:14:05;51588.88;;;-141.55;70.21
4199;BME280;2113;50.946;14.610;2023-07-16T05:16:33;51632.72;;;-141.55;70.64
4199;BME280;2113;50.946;14.610;2023-07-16T05:19:02;51638.72;;;-141.55;71.59
4199;BME280;2113;50.946;14.610;2023-07-16T05:21:30;51616.78;;;-141.55;70.93
4199;BME280;2113;50.946;14.610;2023-07-16T05:24:01;51638.72;;;-141.55;70.60
4199;BME280;2113;50.946;14.610;2023-07-16T05:26:29;51634.72;;;-141.55;70.36
4199;BME280;2113;50.946;14.610;2023-07-16T05:28:58;51630.75;;;-141.55;70.09
4199;BME280;2113;50.946;14.610;2023-07-16T05:31:26;51652.69;;;-141.55;70.62
4199;BME280;2113;50.946;14.610;2023-07-16T05:33:54;51678.59;;;-141.55;72.51
4199;BME280;2113;50.946;14.610;2023-07-16T05:36:23;51664.63;;;-141.55;73.21
4199;BME280;2113;50.946;14.610;2023-07-16T05:38:51;51674.63;;;-141.55;73.81
4199;BME280;2113;50.946;14.610;2023-07-16T05:41:21;51646.69;;;-141.55;73.97
4199;BME280;2113;50.946;14.610;2023-07-16T05:43:50;51616.78;;;-141.55;74.53
4199;BME280;2113;50.946;14.610;2023-07-16T05:46:18;51666.63;;;-141.55;73.99
4199;BME280;2113;50.946;14.610;2023-07-16T05:48:48;51634.72;;;-141.55;73.67
4199;BME280;2113;50.946;14.610;2023-07-16T05:51:16;51664.63;;;-141.55;73.79
4199;BME280;2113;50.946;14.610;2023-07-16T05:53:44;51650.69;;;-141.55;74.91
4199;BME280;2113;50.946;14.610;2023-07-16T05:56:13;51610.81;;;-141.55;76.49
4199;BME280;2113;50.946;14.610;2023-07-16T05:58:43;51692.56;;;-141.55;77.49
4199;BME280;2113;50.946;14.610;2023-07-16T06:01:11;51670.63;;;-141.55;78.58
4199;BME280;2113;50.946;14.610;2023-07-16T06:03:40;51666.63;;;-141.55;79.00
4199;BME280;2113;50.946;14.610;2023-07-16T06:06:09;51666.63;;;-141.55;78.75
4199;BME280;2113;50.946;14.610;2023-07-16T06:08:37;51654.66;;;-141.55;79.15
4199;BME280;2113;50.946;14.610;2023-07-16T06:11:05;51658.66;;;-141.55;79.18
4199;BME280;2113;50.946;14.610;2023-07-16T06:13:36;51706.50;;;-141.55;79.08
4199;BME280;2113;50.946;14.610;2023-07-16T06:16:06;51642.72;;;-141.55;79.29
4199;BME280;2113;50.946;14.610;2023-07-16T06:18:35;51642.72;;;-141.55;79.50
4199;BME280;2113;50.946;14.610;2023-07-16T06:21:03;51662.66;;;-141.55;78.93
4199;BME280;2113;50.946;14.610;2023-07-16T06:23:32;51652.69;;;-141.55;77.60
4199;BME280;2113;50.946;14.610;2023-07-16T06:26:01;51650.69;;;-141.55;77.20
4199;BME280;2113;50.946;14.610;2023-07-16T06:28:29;51690.56;;;-141.55;76.94
4199;BME280;2113;50.946;14.610;2023-07-16T06:30:58;51664.63;;;-141.55;76.72
4199;BME280;2113;50.946;14.610;2023-07-16T06:33:27;51670.63;;;-141.55;78.26
4199;BME280;2113;50.946;14.610;2023-07-16T06:35:55;51628.75;;;-141.55;77.37
4199;BME280;2113;50.946;14.610;2023-07-16T06:38:24;51624.75;;;-141.55;76.49
4199;BME280;2113;50.946;14.610;2023-07-16T06:40:55;51660.66;;;-141.55;75.85
4199;BME280;2113;50.946;14.610;2023-07-16T06:43:23;51644.69;;;-141.55;75.04
4199;BME280;2113;50.946;14.610;2023-07-16T06:45:53;51630.75;;;-141.55;74.42
4199;BME280;2113;50.946;14.610;2023-07-16T06:48:22;51648.69;;;-141.55;74.39
4199;BME280;2113;50.946;14.610;2023-07-16T06:50:52;51640.72;;;-141.55;74.16
4199;BME280;2113;50.946;14.610;2023-07-16T06:53:20;51664.63;;;-141.55;73.92
4199;BME280;2113;50.946;14.610;2023-07-16T06:55:51;51640.72;;;-141.55;72.60
4199;BME280;2113;50.946;14.610;2023-07-16T06:58:19;51636.72;;;-141.55;72.09
4199;BME280;2113;50.946;14.610;2023-07-16T07:00:47;51632.72;;;-141.55;72.85
4199;BME280;2113;50.946;14.610;2023-07-16T07:03:16;51618.78;;;-141.55;73.17
4199;BME280;2113;50.946;14.610;2023-07-16T07:05:44;51636.72;;;-141.55;72.21
4199;BME280;2113;50.946;14.610;2023-07-16T07:08:14;51590.84;;;-141.55;70.71
4199;BME280;2113;50.946;14.610;2023-07-16T07:10:42;51560.94;;;-141.55;67.39
4199;BME280;2113;50.946;14.610;2023-07-16T07:13:14;51527.06;;;-141.55;63.19
4199;BME280;2113;50.946;14.610;2023-07-16T07:15:42;51509.09;;;-141.55;63.07
4199;BME280;2113;50.946;14.610;2023-07-16T07:18:10;51564.94;;;-141.55;62.58
4199;BME280;2113;50.946;14.610;2023-07-16T07:20:39;51550.97;;;-141.55;62.63
4199;BME280;2113;50.946;14.610;2023-07-16T07:23:07;51568.94;;;-141.55;63.98
4199;BME280;2113;50.946;14.610;2023-07-16T07:25:37;51586.88;;;-141.55;64.09
4199;BME280;2113;50.946;14.610;2023-07-16T07:28:07;51608.81;;;-141.55;65.79
4199;BME280;2113;50.946;14.610;2023-07-16T07:30:36;51574.91;;;-141.55;67.10
4199;BME280;2113;50.946;14.610;2023-07-16T07:33:05;51594.84;;;-141.55;68.25
4199;BME280;2113;50.946;14.610;2023-07-16T07:35:34;51578.91;;;-141.55;68.33
4199;BME280;2113;50.946;14.610;2023-07-16T07:38:02;51588.88;;;-141.55;69.37
4199;BME280;2113;50.946;14.610;2023-07-16T07:40:31;51652.69;;;-141.55;69.97
4199;BME280;2113;50.946;14.610;2023-07-16T07:43:01;51592.84;;;-141.55;69.00
4199;BME280;2113;50.946;14.610;2023-07-16T07:45:29;51634.72;;;-141.55;69.34
4199;BME280;2113;50.946;14.610;2023-07-16T07:47:57;51606.81;;;-141.55;67.66
4199;BME280;2113;50.946;14.610;2023-07-16T07:50:26;51624.75;;;-141.55;67.58
4199;BME280;2113;50.946;14.610;2023-07-16T07:52:56;51630.75;;;-141.55;66.31
4199;BME280;2113;50.946;14.610;2023-07-16T07:55:24;51576.91;;;-141.55;64.27
4199;BME280;2113;50.946;14.610;2023-07-16T07:57:52;51564.94;;;-141.55;62.43
4199;BME280;2113;50.946;14.610;2023-07-16T08:00:23;51566.94;;;-141.55;63.78
4199;BME280;2113;50.946;14.610;2023-07-16T08:02:51;51580.88;;;-141.55;63.48
4199;BME280;2113;50.946;14.610;2023-07-16T08:05:20;51556.97;;;-141.55;62.18
4199;BME280;2113;50.946;14.610;2023-07-16T08:07:49;51560.94;;;-141.55;62.76
4199;BME280;2113;50.946;14.610;2023-07-16T08:10:18;51572.91;;;-141.55;61.52
4199;BME280;2113;50.946;14.610;2023-07-16T08:12:47;51495.16;;;-141.55;57.25
4199;BME280;2113;50.946;14.610;2023-07-16T08:15:15;51439.31;;;-141.55;51.59
4199;BME280;2113;50.946;14.610;2023-07-16T08:17:45;51391.47;;;-141.55;52.12
4199;BME280;2113;50.946;14.610;2023-07-16T08:20:15;51407.41;;;-141.55;50.37
4199;BME280;2113;50.946;14.610;2023-07-16T08:22:43;51395.44;;;-141.55;48.98
4199;BME280;2113;50.946;14.610;2023-07-16T08:25:12;51429.34;;;-141.55;49.64
4199;BME280;2113;50.946;14.610;2023-07-16T08:27:40;51495.16;;;-141.55;53.69
4199;BME280;2113;50.946;14.610;2023-07-16T08:30:09;51525.06;;;-141.55;57.58
4199;BME280;2113;50.946;14.610;2023-07-16T08:32:38;51550.97;;;-141.55;57.50
4199;BME280;2113;50.946;14.610;2023-07-16T08:35:09;51543.00;;;-141.55;59.76
4199;BME280;2113;50.946;14.610;2023-07-16T08:37:43;51564.94;;;-141.55;59.19
4199;BME280;2113;50.946;14.610;2023-07-16T08:40:12;51550.97;;;-141.55;58.53
4199;BME280;2113;50.946;14.610;2023-07-16T08:42:44;51513.09;;;-141.55;57.11
4199;BME280;2113;50.946;14.610;2023-07-16T08:45:14;51507.13;;;-141.55;56.14
4199;BME280;2113;50.946;14.610;2023-07-16T08:47:43;51531.03;;;-141.55;56.40
4199;BME280;2113;50.946;14.610;2023-07-16T08:50:13;51489.16;;;-141.55;56.11
4199;BME280;2113;50.946;14.610;2023-07-16T08:52:42;51525.06;;;-141.55;58.20
4199;BME280;2113;50.946;14.610;2023-07-16T08:55:12;51564.94;;;-141.55;58.71
4199;BME280;2113;50.946;14.610;2023-07-16T08:57:40;51483.19;;;-141.55;55.58
4199;BME280;2113;50.946;14.610;2023-07-16T09:00:10;51363.53;;;-141.55;46.73
4199;BME280;2113;50.946;14.610;2023-07-16T09:02:39;51327.66;;;-141.55;44.18
4199;BME280;2113;50.946;14.610;2023-07-16T09:05:09;51295.75;;;-141.55;42.95
4199;BME280;2113;50.946;14.610;2023-07-16T09:07:55;51297.75;;;-141.55;41.23
4199;BME280;2113;50.946;14.610;2023-07-16T09:10:24;51321.69;;;-141.55;45.92
4199;BME280;2113;50.946;14.610;2023-07-16T09:12:53;51399.44;;;-141.55;47.57
4199;BME280;2113;50.946;14.610;2023-07-16T09:15:21;51411.41;;;-141.55;47.66
4199;BME280;2113;50.946;14.610;2023-07-16T09:17:50;51487.16;;;-141.55;49.18
4199;BME280;2113;50.946;14.610;2023-07-16T09:20:19;51401.44;;;-141.55;47.23
4199;BME280;2113;50.946;14.610;2023-07-16T09:22:47;51423.38;;;-141.55;47.87
4199;BME280;2113;50.946;14.610;2023-07-16T09:25:17;51417.38;;;-141.55;48.84
4199;BME280;2113;50.946;14.610;2023-07-16T09:27:48;51327.66;;;-141.55;45.70
4199;BME280;2113;50.946;14.610;2023-07-16T09:30:17;51323.66;;;-141.55;41.79
4199;BME280;2113;50.946;14.610;2023-07-16T09:32:45;51239.94;;;-141.55;40.78
4199;BME280;2113;50.946;14.610;2023-07-16T09:35:16;51239.94;;;-141.55;39.20
4199;BME280;2113;50.946;14.610;2023-07-16T09:37:45;51363.53;;;-141.55;42.84
4199;BME280;2113;50.946;14.610;2023-07-16T09:40:13;51343.59;;;-141.55;42.61
4199;BME280;2113;50.946;14.610;2023-07-16T09:42:44;51399.44;;;-141.55;44.56
4199;BME280;2113;50.946;14.610;2023-07-16T09:45:17;51385.47;;;-141.55;45.53
4199;BME280;2113;50.946;14.610;2023-07-16T09:47:46;51319.69;;;-141.55;43.74
4199;BME280;2113;50.946;14.610;2023-07-16T09:50:14;51383.47;;;-141.55;44.37
4199;BME280;2113;50.946;14.610;2023-07-16T09:52:43;51439.31;;;-141.55;47.56
4199;BME280;2113;50.946;14.610;2023-07-16T09:55:12;51443.31;;;-141.55;49.50
4199;BME280;2113;50.946;14.610;2023-07-16T09:57:45;51453.28;;;-141.55;50.45
4199;BME280;2113;50.946;14.610;2023-07-16T10:00:15;51515.09;;;-141.55;51.96
4199;BME280;2113;50.946;14.610;2023-07-16T10:02:44;51535.03;;;-141.55;53.83
4199;BME280;2113;50.946;14.610;2023-07-16T10:05:14;51495.16;;;-141.55;52.27
4199;BME280;2113;50.946;14.610;2023-07-16T10:07:43;51503.13;;;-141.55;51.88
4199;BME280;2113;50.946;14.610;2023-07-16T10:10:18;51475.22;;;-141.55;50.34
4199;BME280;2113;50.946;14.610;2023-07-16T10:13:01;51437.31;;;-141.55;48.06
4199;BME280;2113;50.946;14.610;2023-07-16T10:15:30;51521.06;;;-141.55;49.54
4199;BME280;2113;50.946;14.610;2023-07-16T10:17:59;51515.09;;;-141.55;50.40
4199;BME280;2113;50.946;14.610;2023-07-16T10:20:29;51499.13;;;-141.55;49.71
4199;BME280;2113;50.946;14.610;2023-07-16T10:23:10;51527.06;;;-141.55;49.91
4199;BME280;2113;50.946;14.610;2023-07-16T10:25:40;51493.16;;;-141.55;50.66
4199;BME280;2113;50.946;14.610;2023-07-16T10:28:10;51543.00;;;-141.55;50.35
4199;BME280;2113;50.946;14.610;2023-07-16T10:30:39;51556.97;;;-141.55;50.94
4199;BME280;2113;50.946;14.610;2023-07-16T10:33:11;51503.13;;;-141.55;49.35
4199;BME280;2113;50.946;14.610;2023-07-16T10:35:41;51533.03;;;-141.55;49.51
4199;BME280;2113;50.946;14.610;2023-07-16T10:38:10;51481.19;;;-141.55;49.21
4199;BME280;2113;50.946;14.610;2023-07-16T10:40:44;51519.06;;;-141.55;47.26
4199;BME280;2113;50.946;14.610;2023-07-16T10:43:14;51503.13;;;-141.55;48.92
4199;BME280;2113;50.946;14.610;2023-07-16T10:45:43;51503.13;;;-141.55;49.27
4199;BME280;2113;50.946;14.610;2023-07-16T10:48:14;51541.00;;;-141.55;49.28
4199;BME280;2113;50.946;14.610;2023-07-16T10:50:42;51489.16;;;-141.55;48.27
4199;BME280;2113;50.946;14.610;2023-07-16T10:53:12;51441.31;;;-141.55;46.22
4199;BME280;2113;50.946;14.610;2023-07-16T10:55:43;51455.28;;;-141.55;46.11
4199;BME280;2113;50.946;14.610;2023-07-16T10:58:12;51505.13;;;-141.55;47.33
4199;BME280;2113;50.946;14.610;2023-07-16T11:00:44;51511.09;;;-141.55;49.39
4199;BME280;2113;50.946;14.610;2023-07-16T11:03:15;51509.09;;;-141.55;48.99
4199;BME280;2113;50.946;14.610;2023-07-16T11:05:45;51517.09;;;-141.55;48.81
4199;BME280;2113;50.946;14.610;2023-07-16T11:08:21;51447.28;;;-141.55;48.22
4199;BME280;2113;50.946;14.610;2023-07-16T11:10:54;51525.06;;;-141.55;48.84
4199;BME280;2113;50.946;14.610;2023-07-16T11:13:27;51489.16;;;-141.55;48.27
4199;BME280;2113;50.946;14.610;2023-07-16T11:16:06;51505.13;;;-141.55;48.28
4199;BME280;2113;50.946;14.610;2023-07-16T11:18:35;51435.31;;;-141.55;47.87
4199;BME280;2113;50.946;14.610;2023-07-16T11:21:04;51457.25;;;-141.55;46.38
4199;BME280;2113;50.946;14.610;2023-07-16T11:23:33;51473.22;;;-141.55;47.23
4199;BME280;2113;50.946;14.610;2023-07-16T11:26:02;51467.22;;;-141.55;46.60
4199;BME280;2113;50.946;14.610;2023-07-16T11:28:38;51481.19;;;-141.55;46.69
4199;BME280;2113;50.946;14.610;2023-07-16T11:31:13;51495.16;;;-141.55;47.81
4199;BME280;2113;50.946;14.610;2023-07-16T11:33:42;51533.03;;;-141.55;48.62
4199;BME280;2113;50.946;14.610;2023-07-16T11:36:11;51501.13;;;-141.55;49.71
4199;BME280;2113;50.946;14.610;2023-07-16T11:38:44;51477.19;;;-141.55;49.17
4199;BME280;2113;50.946;14.610;2023-07-16T11:41:12;51449.28;;;-141.55;49.08
4199;BME280;2113;50.946;14.610;2023-07-16T11:43:40;51471.22;;;-141.55;47.70
4199;BME280;2113;50.946;14.610;2023-07-16T11:46:16;51471.22;;;-141.55;48.62
4199;BME280;2113;50.946;14.610;2023-07-16T11:48:45;51467.22;;;-141.55;47.80
4199;BME280;2113;50.946;14.610;2023-07-16T11:51:14;51457.25;;;-141.55;47.83
4199;BME280;2113;50.946;14.610;2023-07-16T11:53:42;51427.34;;;-141.55;47.91
4199;BME280;2113;50.946;14.610;2023-07-16T11:56:11;51411.41;;;-141.55;46.96
4199;BME280;2113;50.946;14.610;2023-07-16T11:58:40;51369.53;;;-141.55;43.49
4199;BME280;2113;50.946;14.610;2023-07-16T12:01:09;51391.47;;;-141.55;44.84
4199;BME280;2113;50.946;14.610;2023-07-16T12:03:40;51483.19;;;-141.55;46.93
4199;BME280;2113;50.946;14.610;2023-07-16T12:06:08;51453.28;;;-141.55;45.92
4199;BME280;2113;50.946;14.610;2023-07-16T12:08:37;51447.28;;;-141.55;45.55
4199;BME280;2113;50.946;14.610;2023-07-16T12:11:05;51393.47;;;-141.55;45.65
4199;BME280;2113;50.946;14.610;2023-07-16T12:13:34;51413.41;;;-141.55;45.18
4199;BME280;2113;50.946;14.610;2023-07-16T12:16:03;51469.22;;;-141.55;46.93
4199;BME280;2113;50.946;14.610;2023-07-16T12:18:32;51447.28;;;-141.55;46.55
4199;BME280;2113;50.946;14.610;2023-07-16T12:21:02;51485.19;;;-141.55;46.15
4199;BME280;2113;50.946;14.610;2023-07-16T12:23:30;51457.25;;;-141.55;46.67
4199;BME280;2113;50.946;14.610;2023-07-16T12:25:59;51471.22;;;-141.55;46.29
4199;BME280;2113;50.946;14.610;2023-07-16T12:28:27;51403.44;;;-141.55;46.41
4199;BME280;2113;50.946;14.610;2023-07-16T12:30:55;51447.28;;;-141.55;45.07
4199;BME280;2113;50.946;14.610;2023-07-16T12:33:24;51391.47;;;-141.55;44.44
4199;BME280;2113;50.946;14.610;2023-07-16T12:35:53;51415.38;;;-141.55;42.54
4199;BME280;2113;50.946;14.610;2023-07-16T12:38:23;51403.44;;;-141.55;45.44
4199;BME280;2113;50.946;14.610;2023-07-16T12:40:51;51395.44;;;-141.55;42.69
4199;BME280;2113;50.946;14.610;2023-07-16T12:43:19;51443.31;;;-141.55;43.64
4199;BME280;2113;50.946;14.610;2023-07-16T12:45:48;51459.25;;;-141.55;44.78
4199;BME280;2113;50.946;14.610;2023-07-16T12:48:16;51475.22;;;-141.55;45.46
4199;BME280;2113;50.946;14.610;2023-07-16T12:50:45;51471.22;;;-141.55;46.02
4199;BME280;2113;50.946;14.610;2023-07-16T12:53:13;51453.28;;;-141.55;45.49
4199;BME280;2113;50.946;14.610;2023-07-16T12:55:43;51445.28;;;-141.55;46.19
4199;BME280;2113;50.946;14.610;2023-07-16T12:58:11;51479.19;;;-141.55;44.50
4199;BME280;2113;50.946;14.610;2023-07-16T13:00:40;51475.22;;;-141.55;45.55
4199;BME280;2113;50.946;14.610;2023-07-16T13:03:11;51401.44;;;-141.55;41.93